Time;durP1;ratioP1;P1;durP2;ratioP2;P2;SDS_P1;SDS_P2;PMS_P1;PMS_P2;Temp;Humidity;BMP_temperature;BMP_pressure;BME280_temperature;BME280_humidity;BME280_pressure;Samples;Min_cycle;Max_cycle;Signal;HPM_P1;HPM_P2
2022/09/26 00:00:03;;;;;;;1.52;1.20;;;17.40;63.90;;;;;;5054973;28;20186;-64
2022/09/26 00:02:29;;;;;;;1.52;1.23;;;17.40;63.90;;;;;;5054501;28;20182;-65
2022/09/26 00:04:54;;;;;;;1.67;1.27;;;17.40;63.90;;;;;;5055191;28;20171;-64
2022/09/26 00:07:20;;;;;;;2.60;1.55;;;17.40;64.00;;;;;;5054679;28;20178;-64
2022/09/26 00:09:46;;;;;;;1.75;1.40;;;17.40;63.90;;;;;;5054046;28;20227;-64
2022/09/26 00:12:12;;;;;;;1.67;1.10;;;17.30;63.90;;;;;;5054517;28;20656;-64
2022/09/26 00:14:37;;;;;;;1.15;1.10;;;17.40;63.90;;;;;;5053892;28;20175;-65
2022/09/26 00:17:03;;;;;;;1.55;1.40;;;17.30;63.90;;;;;;5053949;28;20178;-65
2022/09/26 00:19:29;;;;;;;1.40;1.20;;;17.30;63.90;;;;;;5054620;28;20207;-64
2022/09/26 00:21:54;;;;;;;1.52;1.30;;;17.40;64.00;;;;;;5053863;28;20178;-64
2022/09/26 00:24:20;;;;;;;1.20;1.10;;;17.40;63.90;;;;;;5054205;28;20641;-64
2022/09/26 00:26:45;;;;;;;1.25;1.20;;;17.30;63.90;;;;;;5054731;28;20712;-64
2022/09/26 00:29:11;;;;;;;1.67;1.48;;;17.40;64.00;;;;;;5053766;28;20283;-64
2022/09/26 00:31:43;;;;;;;2.05;1.23;;;17.40;64.00;;;;;;5054826;28;20167;-63
2022/09/26 00:34:10;;;;;;;0.98;0.98;;;17.30;63.90;;;;;;5054230;28;20175;-63
2022/09/26 00:36:36;;;;;;;2.13;1.40;;;17.30;63.90;;;;;;5052493;28;20175;-64
2022/09/26 00:39:01;;;;;;;1.40;1.30;;;17.30;64.00;;;;;;5054079;28;20269;-64
2022/09/26 00:41:27;;;;;;;1.58;1.48;;;17.30;63.90;;;;;;5054578;28;20175;-64
2022/09/26 00:43:54;;;;;;;1.50;1.40;;;17.30;63.90;;;;;;5053711;28;20197;-64
2022/09/26 00:46:25;;;;;;;1.45;1.35;;;17.30;63.90;;;;;;5054054;28;20203;-64
2022/09/26 00:49:13;;;;;;;1.13;1.05;;;17.30;63.90;;;;;;5054056;28;20528;-63
2022/09/26 00:51:40;;;;;;;1.30;1.20;;;17.30;64.00;;;;;;5049853;28;20261;-64
2022/09/26 00:54:08;;;;;;;1.55;1.30;;;17.30;63.90;;;;;;5052589;28;20179;-64
2022/09/26 00:56:34;;;;;;;1.40;1.30;;;17.30;64.00;;;;;;5052879;28;20198;-64
2022/09/26 00:59:13;;;;;;;1.92;1.17;;;17.30;64.00;;;;;;5053011;28;20199;-64
2022/09/26 01:01:39;;;;;;;1.40;1.30;;;17.20;63.80;;;;;;5052757;28;20209;-64
2022/09/26 01:04:04;;;;;;;2.17;1.42;;;17.30;63.90;;;;;;5051493;28;20525;-64
2022/09/26 01:06:30;;;;;;;1.25;1.13;;;17.30;64.00;;;;;;5053868;28;20175;-64
2022/09/26 01:09:02;;;;;;;1.67;1.25;;;17.30;64.00;;;;;;5052706;28;20266;-64
2022/09/26 01:11:30;;;;;;;2.55;1.30;;;17.30;63.90;;;;;;5051720;28;20227;-64
2022/09/26 01:13:55;;;;;;;1.67;1.20;;;17.30;64.00;;;;;;5053796;28;20210;-64
2022/09/26 01:16:21;;;;;;;1.10;1.08;;;17.30;64.00;;;;;;5052269;28;20203;-65
2022/09/26 01:18:46;;;;;;;1.20;1.10;;;17.30;64.00;;;;;;5052801;28;20215;-64
2022/09/26 01:21:41;;;;;;;1.20;1.10;;;17.30;64.00;;;;;;5052299;28;20171;-64
2022/09/26 01:24:41;;;;;;;1.48;1.38;;;17.30;64.00;;;;;;5052484;28;20265;-64
2022/09/26 01:27:24;;;;;;;1.00;1.00;;;17.30;64.00;;;;;;5047970;28;20209;-64
2022/09/26 01:30:07;;;;;;;1.30;1.00;;;17.30;64.00;;;;;;5052364;28;20175;-64
2022/09/26 01:32:53;;;;;;;1.23;1.17;;;17.30;64.00;;;;;;5051689;28;20205;-63
2022/09/26 01:35:50;;;;;;;1.20;1.10;;;17.30;64.00;;;;;;5053203;28;20175;-63
2022/09/26 01:38:29;;;;;;;1.25;1.15;;;17.30;64.00;;;;;;5051968;28;20206;-64
2022/09/26 01:41:09;;;;;;;1.42;1.27;;;17.30;64.00;;;;;;5052508;28;20183;-64
2022/09/26 01:43:55;;;;;;;1.17;1.10;;;17.30;64.00;;;;;;5053068;28;20174;-64
2022/09/26 01:46:49;;;;;;;1.15;1.10;;;17.20;64.00;;;;;;5051294;28;20548;-63
2022/09/26 01:49:40;;;;;;;1.00;1.00;;;17.30;64.10;;;;;;5047886;28;20619;-64
2022/09/26 01:52:08;;;;;;;1.35;1.25;;;17.30;64.10;;;;;;5052066;28;20242;-64
2022/09/26 01:54:55;;;;;;;1.30;1.20;;;17.20;64.00;;;;;;5052575;28;20278;-65
2022/09/26 01:57:27;;;;;;;1.13;1.02;;;17.30;64.00;;;;;;5052003;28;20687;-64
2022/09/26 01:59:55;;;;;;;2.45;1.40;;;17.20;64.00;;;;;;5051807;28;20226;-64
2022/09/26 02:02:24;;;;;;;1.70;1.17;;;17.20;64.00;;;;;;5051065;28;20233;-63
2022/09/26 02:04:56;;;;;;;1.05;0.90;;;17.20;64.00;;;;;;5052123;28;20171;-63
2022/09/26 02:07:35;;;;;;;1.08;1.08;;;17.20;64.00;;;;;;5051036;28;20546;-63
2022/09/26 02:10:05;;;;;;;1.30;1.20;;;17.30;64.10;;;;;;5051154;28;20276;-63
2022/09/26 02:12:32;;;;;;;1.23;1.10;;;17.20;64.00;;;;;;5051569;28;20181;-63
2022/09/26 02:14:59;;;;;;;1.00;1.00;;;17.30;64.20;;;;;;5052008;28;20179;-63
2022/09/26 02:17:27;;;;;;;1.10;1.00;;;17.30;64.10;;;;;;5051487;28;20657;-63
2022/09/26 02:19:57;;;;;;;1.20;1.13;;;17.20;64.00;;;;;;5051672;28;20297;-63
2022/09/26 02:22:27;;;;;;;1.08;1.08;;;17.20;64.00;;;;;;5050812;28;20179;-63
2022/09/26 02:24:53;;;;;;;1.15;1.05;;;17.20;64.00;;;;;;5051528;28;20253;-62
2022/09/26 02:27:18;;;;;;;2.63;1.20;;;17.20;64.10;;;;;;5051231;28;20671;-63
2022/09/26 02:29:44;;;;;;;1.13;1.10;;;17.20;64.00;;;;;;5052253;28;20544;-62
2022/09/26 02:32:21;;;;;;;1.88;1.23;;;17.20;64.00;;;;;;5051308;28;20633;-62
2022/09/26 02:34:47;;;;;;;3.13;1.58;;;17.20;64.10;;;;;;5051494;28;20580;-62
2022/09/26 02:37:14;;;;;;;0.98;0.93;;;17.20;64.10;;;;;;5050538;28;20214;-62
2022/09/26 02:39:43;;;;;;;1.00;1.00;;;17.20;64.10;;;;;;5054435;28;20569;-63
2022/09/26 02:42:35;;;;;;;1.20;1.10;;;17.30;64.20;;;;;;5056312;28;20636;-62
2022/09/26 02:45:24;;;;;;;1.27;1.17;;;17.20;64.10;;;;;;5055334;28;20502;-62
2022/09/26 02:47:58;;;;;;;1.42;1.33;;;17.20;64.00;;;;;;5056567;28;20189;-62
2022/09/26 02:50:30;;;;;;;1.20;1.10;;;17.20;64.10;;;;;;5054925;28;20253;-62
2022/09/26 02:52:59;;;;;;;1.17;1.10;;;17.20;64.10;;;;;;5056619;28;20183;-63
2022/09/26 02:55:46;;;;;;;1.42;1.23;;;17.20;64.20;;;;;;5056629;28;20174;-63
2022/09/26 02:58:26;;;;;;;1.45;1.00;;;17.20;64.10;;;;;;5054187;28;20249;-63
2022/09/26 03:01:00;;;;;;;1.02;1.00;;;17.20;64.10;;;;;;5055372;28;20172;-63
2022/09/26 03:03:32;;;;;;;1.50;1.08;;;17.10;64.00;;;;;;5055152;28;20182;-63
2022/09/26 03:05:58;;;;;;;2.45;1.38;;;17.20;64.10;;;;;;5055137;28;20175;-62
2022/09/26 03:08:28;;;;;;;1.25;1.15;;;17.20;64.10;;;;;;5055267;28;20175;-63
2022/09/26 03:10:54;;;;;;;1.30;1.20;;;17.20;64.10;;;;;;5054106;28;20271;-63
2022/09/26 03:13:20;;;;;;;1.35;1.25;;;17.20;64.10;;;;;;5054854;28;20197;-63
2022/09/26 03:15:53;;;;;;;1.30;1.20;;;17.20;64.10;;;;;;5055177;28;20649;-63
2022/09/26 03:18:23;;;;;;;1.83;0.93;;;17.20;65.00;;;;;;5054036;28;20293;-63
2022/09/26 03:20:52;;;;;;;0.90;0.90;;;17.20;64.10;;;;;;5054979;28;20232;-63
2022/09/26 03:23:22;;;;;;;1.20;1.10;;;17.10;64.10;;;;;;5055807;28;20639;-62
2022/09/26 03:25:55;;;;;;;1.17;1.00;;;17.20;64.10;;;;;;5054213;28;20300;-62
2022/09/26 03:28:21;;;;;;;1.05;1.02;;;17.10;64.10;;;;;;5054500;28;20194;-63
2022/09/26 03:30:47;;;;;;;1.10;1.00;;;17.10;64.10;;;;;;5055826;28;20171;-62
2022/09/26 03:33:13;;;;;;;1.33;0.93;;;17.10;64.10;;;;;;5054630;28;20190;-62
2022/09/26 03:35:38;;;;;;;1.45;1.10;;;17.10;64.00;;;;;;5055484;28;20176;-62
2022/09/26 03:38:04;;;;;;;0.95;0.95;;;17.10;64.10;;;;;;5055021;28;20633;-62
2022/09/26 03:40:29;;;;;;;1.35;1.10;;;17.10;64.10;;;;;;5054880;28;20174;-63
2022/09/26 03:42:55;;;;;;;1.38;1.02;;;17.20;64.10;;;;;;5055533;28;20178;-63
2022/09/26 03:45:20;;;;;;;1.25;1.15;;;17.10;64.10;;;;;;5055514;28;20182;-63
2022/09/26 03:47:46;;;;;;;1.20;1.10;;;17.10;64.10;;;;;;5054801;28;20179;-62
2022/09/26 03:50:13;;;;;;;1.80;1.10;;;17.10;64.10;;;;;;5054075;28;20167;-63
2022/09/26 03:52:39;;;;;;;1.13;1.02;;;17.10;64.10;;;;;;5055095;28;20183;-63
2022/09/26 03:55:05;;;;;;;1.20;1.10;;;17.10;64.20;;;;;;5054784;28;20182;-62
2022/09/26 03:57:30;;;;;;;0.93;0.90;;;17.10;64.10;;;;;;5055445;28;20175;-63
2022/09/26 03:59:56;;;;;;;1.17;1.08;;;17.10;64.10;;;;;;5054626;28;20230;-63
2022/09/26 04:02:21;;;;;;;1.17;1.08;;;17.10;64.10;;;;;;5055103;28;20687;-63
2022/09/26 04:04:47;;;;;;;1.55;1.20;;;17.10;64.10;;;;;;5055153;28;20237;-64
2022/09/26 04:07:12;;;;;;;1.52;1.40;;;17.10;64.10;;;;;;5054030;28;20168;-63
2022/09/26 04:09:38;;;;;;;1.20;1.10;;;17.10;64.10;;;;;;5055051;28;20280;-63
2022/09/26 04:12:03;;;;;;;1.23;1.13;;;17.00;64.10;;;;;;5054868;28;20175;-63
2022/09/26 04:14:30;;;;;;;1.25;1.13;;;17.10;64.10;;;;;;5054383;28;20182;-63
2022/09/26 04:16:57;;;;;;;1.05;0.98;;;17.10;64.20;;;;;;5054812;28;20228;-63
2022/09/26 04:19:22;;;;;;;1.27;1.15;;;17.10;64.10;;;;;;5054718;28;20194;-63
2022/09/26 04:21:49;;;;;;;1.17;1.08;;;17.10;64.10;;;;;;5053927;28;20186;-63
2022/09/26 04:24:15;;;;;;;1.35;1.23;;;17.10;64.20;;;;;;5054419;28;20542;-63
2022/09/26 04:26:42;;;;;;;1.20;1.00;;;17.10;64.30;;;;;;5054835;28;20175;-63
2022/09/26 04:29:07;;;;;;;1.33;1.05;;;17.10;64.20;;;;;;5053627;28;20516;-63
2022/09/26 04:31:35;;;;;;;1.10;1.10;;;17.00;64.20;;;;;;5054635;28;20178;-63
2022/09/26 04:34:01;;;;;;;1.38;1.20;;;17.10;64.20;;;;;;5053046;28;20183;-63
2022/09/26 04:36:27;;;;;;;1.20;1.10;;;17.10;64.20;;;;;;5053813;28;20206;-62
2022/09/26 04:38:52;;;;;;;0.95;0.90;;;17.10;64.20;;;;;;5054521;28;20280;-63
2022/09/26 04:41:19;;;;;;;0.98;0.90;;;17.00;64.10;;;;;;5054024;28;20545;-63
2022/09/26 04:43:44;;;;;;;1.35;1.10;;;17.00;64.10;;;;;;5053685;28;20345;-63
2022/09/26 04:46:12;;;;;;;0.85;0.85;;;17.00;64.20;;;;;;5054029;28;20673;-63
2022/09/26 04:48:38;;;;;;;1.45;1.20;;;17.10;64.20;;;;;;5054210;28;20187;-62
2022/09/26 04:51:07;;;;;;;1.10;0.95;;;17.00;64.30;;;;;;5053271;28;20519;-63
2022/09/26 04:53:33;;;;;;;1.35;1.25;;;17.00;64.20;;;;;;5054048;28;20645;-63
2022/09/26 04:55:59;;;;;;;0.70;0.70;;;17.00;64.20;;;;;;5053321;28;20171;-63
2022/09/26 04:58:25;;;;;;;1.98;1.20;;;17.00;64.20;;;;;;5053962;28;20723;-63
2022/09/26 05:00:51;;;;;;;1.23;0.90;;;17.00;64.20;;;;;;5053858;28;20179;-63
2022/09/26 05:03:16;;;;;;;1.60;1.23;;;17.00;64.20;;;;;;5052997;28;20186;-63
2022/09/26 05:05:46;;;;;;;1.08;0.93;;;17.00;64.20;;;;;;5054191;28;20641;-63
2022/09/26 05:08:13;;;;;;;1.23;1.10;;;17.10;64.30;;;;;;5053832;28;20241;-62
2022/09/26 05:10:39;;;;;;;1.40;1.30;;;17.00;64.20;;;;;;5052906;28;20223;-63
2022/09/26 05:13:04;;;;;;;1.67;1.00;;;17.00;64.20;;;;;;5053474;28;20579;-63
2022/09/26 05:15:30;;;;;;;1.30;1.20;;;17.00;64.30;;;;;;5053789;28;20171;-63
2022/09/26 05:17:57;;;;;;;1.83;1.15;;;17.00;64.20;;;;;;5052682;28;20179;-63
2022/09/26 05:20:23;;;;;;;1.48;0.90;;;17.00;64.20;;;;;;5053577;28;20187;-63
2022/09/26 05:22:49;;;;;;;1.08;0.90;;;17.00;64.30;;;;;;5053738;28;20248;-62
2022/09/26 05:27:59;;;;;;;1.50;1.08;;;17.00;64.20;;;;;;5053449;28;20767;-62
2022/09/26 05:30:25;;;;;;;1.33;1.00;;;17.00;64.20;;;;;;5052235;28;20179;-63
2022/09/26 05:32:51;;;;;;;0.80;0.80;;;17.00;64.20;;;;;;5052951;28;20183;-62
2022/09/26 05:35:17;;;;;;;1.83;1.15;;;17.00;64.20;;;;;;5053239;28;20184;-63
2022/09/26 05:37:42;;;;;;;2.03;1.10;;;17.00;64.20;;;;;;5053289;28;20175;-63
2022/09/26 05:43:01;;;;;;;2.28;1.25;;;17.00;64.20;;;;;;5052335;28;20262;-63
2022/09/26 05:45:30;;;;;;;1.15;0.98;;;17.00;64.30;;;;;;5052491;28;20196;-63
2022/09/26 05:47:55;;;;;;;1.02;0.93;;;17.00;64.20;;;;;;5053075;28;20180;-63
2022/09/26 05:50:23;;;;;;;1.17;1.08;;;17.00;64.30;;;;;;5052719;28;20175;-62
2022/09/26 05:52:49;;;;;;;1.23;1.08;;;17.00;64.30;;;;;;5052266;28;20664;-63
2022/09/26 05:55:15;;;;;;;1.00;0.90;;;17.00;64.30;;;;;;5052862;28;20171;-62
2022/09/26 05:57:52;;;;;;;1.58;1.33;;;17.00;64.20;;;;;;5053635;28;20320;-63
2022/09/26 06:00:17;;;;;;;1.13;0.90;;;16.90;64.20;;;;;;5052345;28;20277;-63
2022/09/26 06:02:43;;;;;;;1.23;1.10;;;17.00;64.20;;;;;;5053053;28;20171;-62
2022/09/26 06:05:08;;;;;;;1.60;1.13;;;17.00;64.20;;;;;;5052512;28;20175;-63
2022/09/26 06:07:34;;;;;;;1.33;0.98;;;17.00;64.20;;;;;;5052237;28;20262;-62
2022/09/26 06:09:59;;;;;;;1.40;1.05;;;17.00;64.20;;;;;;5052365;28;20326;-63
2022/09/26 06:12:25;;;;;;;1.58;1.10;;;17.00;64.20;;;;;;5052517;28;20175;-63
2022/09/26 06:14:52;;;;;;;1.88;1.13;;;16.90;64.20;;;;;;5051828;28;20183;-63
2022/09/26 06:17:18;;;;;;;1.38;1.20;;;17.00;64.20;;;;;;5052612;28;20178;-63
2022/09/26 06:19:43;;;;;;;1.10;1.00;;;17.00;64.10;;;;;;5052944;28;20225;-63
2022/09/26 06:22:09;;;;;;;3.35;1.20;;;17.00;64.20;;;;;;5051724;28;20266;-62
2022/09/26 06:24:35;;;;;;;3.25;1.17;;;17.00;64.10;;;;;;5052831;28;20222;-62
2022/09/26 06:27:00;;;;;;;1.20;1.10;;;17.00;64.10;;;;;;5052619;28;20273;-62
2022/09/26 06:29:26;;;;;;;1.27;0.95;;;17.00;64.20;;;;;;5051834;28;20544;-62
2022/09/26 06:31:51;;;;;;;3.33;1.10;;;17.00;64.20;;;;;;5052937;28;20171;-62
2022/09/26 06:34:17;;;;;;;1.73;1.30;;;17.00;64.30;;;;;;5052303;28;20633;-62
2022/09/26 06:36:43;;;;;;;3.63;1.25;;;17.10;64.30;;;;;;5051797;28;20182;-62
2022/09/26 06:39:08;;;;;;;2.75;1.35;;;17.10;64.30;;;;;;5052164;28;20221;-63
2022/09/26 06:41:37;;;;;;;2.50;1.20;;;17.10;64.30;;;;;;5051903;28;20171;-63
2022/09/26 06:44:03;;;;;;;3.78;1.30;;;17.10;64.30;;;;;;5052518;28;20236;-63
2022/09/26 06:46:30;;;;;;;4.05;1.17;;;17.10;64.40;;;;;;5052518;28;20645;-65
2022/09/26 06:48:56;;;;;;;5.65;1.90;;;17.10;64.30;;;;;;5051992;28;20187;-65
2022/09/26 06:51:24;;;;;;;8.40;1.30;;;17.10;64.20;;;;;;5052846;28;20178;-65
2022/09/26 06:53:50;;;;;;;3.67;1.83;;;17.10;64.80;;;;;;5054362;28;20654;-62
2022/09/26 06:56:16;;;;;;;6.10;1.80;;;17.10;64.40;;;;;;5056549;28;20211;-63
2022/09/26 06:58:41;;;;;;;5.90;1.95;;;17.20;64.40;;;;;;5072632;28;20707;-65
2022/09/26 07:01:07;;;;;;;5.18;1.23;;;17.20;64.40;;;;;;5072210;28;20245;-63
2022/09/26 07:03:32;;;;;;;7.03;1.80;;;17.20;64.40;;;;;;5071810;28;20181;-63
2022/09/26 07:05:58;;;;;;;2.88;1.60;;;17.20;64.30;;;;;;5072166;28;20628;-61
2022/09/26 07:08:24;;;;;;;6.45;1.98;;;17.20;64.40;;;;;;5072421;28;20637;-66
2022/09/26 07:10:50;;;;;;;8.35;1.83;;;17.10;64.40;;;;;;5067169;28;20296;-62
2022/09/26 07:13:16;;;;;;;3.30;1.25;;;17.20;64.40;;;;;;5061175;28;20641;-62
2022/09/26 07:15:43;;;;;;;5.10;1.35;;;17.20;64.50;;;;;;5057006;28;20175;-62
2022/09/26 07:18:09;;;;;;;6.65;1.60;;;17.20;64.70;;;;;;5068716;28;20218;-62
2022/09/26 07:20:36;;;;;;;7.03;1.83;;;17.10;64.60;;;;;;5052234;28;20218;-62
2022/09/26 07:23:07;;;;;;;3.38;1.88;;;17.10;64.70;;;;;;5056453;28;20176;-62
2022/09/26 07:25:32;;;;;;;3.85;1.38;;;17.10;64.70;;;;;;5034129;28;20643;-61
2022/09/26 07:27:58;;;;;;;4.13;1.25;;;17.10;64.70;;;;;;5035701;28;20244;-61
2022/09/26 07:30:24;;;;;;;8.00;1.52;;;17.10;64.70;;;;;;5052361;28;20642;-61
2022/09/26 07:32:49;;;;;;;3.72;1.50;;;17.10;64.90;;;;;;5054436;28;20221;-62
2022/09/26 07:35:16;;;;;;;4.55;1.95;;;17.10;64.70;;;;;;5063903;28;20166;-61
2022/09/26 07:37:42;;;;;;;5.97;2.13;;;17.10;64.80;;;;;;5068219;28;20179;-61
2022/09/26 07:40:08;;;;;;;6.00;1.88;;;17.10;64.80;;;;;;5054825;28;20207;-61
2022/09/26 07:42:34;;;;;;;4.10;1.52;;;17.10;64.80;;;;;;5066720;28;20568;-61
2022/09/26 07:44:59;;;;;;;6.05;1.90;;;17.10;64.80;;;;;;5074446;28;20223;-62
2022/09/26 07:50:13;;;;;;;4.90;1.40;;;17.10;64.80;;;;;;5071778;28;20274;-62
2022/09/26 07:52:40;;;;;;;7.65;1.92;;;17.10;64.90;;;;;;5055073;28;20202;-61
2022/09/26 07:55:07;;;;;;;4.93;1.30;;;17.10;64.90;;;;;;5055127;28;20183;-61
2022/09/26 07:57:34;;;;;;;4.55;1.35;;;17.10;64.90;;;;;;5055564;28;20179;-62
2022/09/26 08:00:12;;;;;;;3.35;1.30;;;17.10;64.90;;;;;;5054232;28;20234;-62
2022/09/26 08:02:41;;;;;;;6.82;1.58;;;17.10;65.00;;;;;;5055250;28;20209;-62
2022/09/26 08:05:08;;;;;;;4.07;1.45;;;17.10;64.90;;;;;;5054987;28;20206;-62
2022/09/26 08:07:34;;;;;;;3.15;1.60;;;17.10;64.80;;;;;;5053414;28;20186;-61
2022/09/26 08:10:01;;;;;;;4.60;1.67;;;17.10;64.80;;;;;;5054788;28;20218;-61
2022/09/26 08:12:28;;;;;;;3.90;1.33;;;17.10;64.90;;;;;;5055286;28;20226;-62
2022/09/26 08:14:53;;;;;;;3.80;1.45;;;17.10;64.80;;;;;;5054501;28;20206;-62
2022/09/26 08:17:19;;;;;;;2.13;1.42;;;17.10;64.80;;;;;;5054675;28;20175;-62
2022/09/26 08:19:44;;;;;;;4.22;1.30;;;17.10;64.80;;;;;;5055066;28;20214;-62
2022/09/26 08:22:10;;;;;;;4.75;1.75;;;17.10;64.90;;;;;;5054064;28;20168;-62
2022/09/26 08:24:36;;;;;;;1.98;1.40;;;17.10;64.90;;;;;;5054959;28;20178;-61
2022/09/26 08:27:02;;;;;;;2.13;1.75;;;17.10;64.90;;;;;;5053979;28;20175;-61
2022/09/26 08:29:30;;;;;;;2.45;1.50;;;17.00;64.80;;;;;;5054901;28;20624;-61
2022/09/26 08:31:56;;;;;;;3.85;1.80;;;17.10;64.80;;;;;;5054987;28;20183;-61
2022/09/26 08:34:21;;;;;;;2.55;1.55;;;17.10;64.90;;;;;;5054126;28;20179;-61
2022/09/26 08:36:52;;;;;;;3.13;1.48;;;17.00;64.80;;;;;;5054270;28;20167;-62
2022/09/26 08:39:18;;;;;;;2.40;1.48;;;17.00;64.80;;;;;;5054246;28;20215;-62
2022/09/26 08:42:05;;;;;;;2.58;1.13;;;17.10;64.80;;;;;;5054009;28;20197;-62
2022/09/26 08:44:36;;;;;;;4.32;1.67;;;17.10;64.50;;;;;;5054472;28;20186;-62
2022/09/26 08:47:22;;;;;;;3.97;1.73;;;17.20;64.50;;;;;;5053021;28;20679;-62
2022/09/26 08:50:39;;;;;;;3.70;1.73;;;17.10;64.40;;;;;;5053953;28;20172;-61
2022/09/26 08:53:16;;;;;;;4.07;1.88;;;17.20;64.40;;;;;;5015506;28;20607;-61
2022/09/26 08:55:43;;;;;;;1.52;1.42;;;17.20;64.40;;;;;;5035967;28;20178;-62
2022/09/26 08:58:22;;;;;;;2.53;1.30;;;17.20;64.40;;;;;;5054012;28;20222;-62
2022/09/26 09:00:50;;;;;;;2.08;1.40;;;17.20;64.30;;;;;;5053016;28;20546;-62
2022/09/26 09:03:28;;;;;;;2.50;1.48;;;17.20;64.30;;;;;;5053334;28;20175;-62
2022/09/26 09:06:01;;;;;;;3.83;1.55;;;17.20;64.40;;;;;;5054109;28;20183;-61
2022/09/26 09:08:35;;;;;;;3.40;1.30;;;17.10;64.30;;;;;;5054139;28;20175;-61
2022/09/26 09:11:35;;;;;;;4.30;1.52;;;17.10;64.40;;;;;;5052771;28;20246;-61
2022/09/26 09:14:20;;;;;;;2.15;1.52;;;17.20;64.40;;;;;;5053906;28;20175;-62
2022/09/26 09:16:52;;;;;;;1.70;1.20;;;17.20;64.30;;;;;;5052176;28;20240;-61
2022/09/26 09:19:36;;;;;;;7.07;1.58;;;17.20;64.40;;;;;;5052433;28;20210;-63
2022/09/26 09:22:26;;;;;;;2.65;1.48;;;17.20;64.50;;;;;;5053457;28;20241;-65
2022/09/26 09:25:24;;;;;;;2.92;1.45;;;17.30;64.40;;;;;;5053046;28;20181;-65
2022/09/26 09:28:14;;;;;;;6.20;1.48;;;17.30;64.40;;;;;;5033362;28;20211;-64
2022/09/26 09:30:46;;;;;;;2.58;1.45;;;17.20;64.20;;;;;;5057671;28;20163;-64
2022/09/26 09:33:24;;;;;;;4.57;1.40;;;17.30;64.20;;;;;;5054272;28;20183;-64
2022/09/26 09:35:55;;;;;;;2.80;1.90;;;17.30;64.20;;;;;;5052226;28;20193;-64
2022/09/26 09:38:28;;;;;;;6.07;2.33;;;17.30;64.00;;;;;;5068312;28;20202;-64
2022/09/26 09:41:12;;;;;;;4.35;1.52;;;17.30;64.80;;;;;;5038390;28;20171;-64
2022/09/26 09:43:38;;;;;;;5.03;1.40;;;17.40;64.00;;;;;;5052406;28;20214;-64
2022/09/26 09:46:27;;;;;;;4.07;1.60;;;17.40;64.10;;;;;;5062831;28;20504;-64
2022/09/26 09:49:11;;;;;;;2.58;1.20;;;17.40;64.00;;;;;;5059456;28;20537;-63
2022/09/26 09:51:51;;;;;;;1.40;1.30;;;17.40;64.20;;;;;;5051668;28;20523;-64
2022/09/26 09:54:37;;;;;;;2.08;1.35;;;17.40;64.20;;;;;;5035954;28;20194;-64
2022/09/26 09:57:22;;;;;;;1.40;1.30;;;17.40;64.20;;;;;;5036508;28;20278;-64
2022/09/26 10:00:07;;;;;;;2.70;1.20;;;17.40;64.20;;;;;;5055870;28;20214;-64
2022/09/26 10:03:00;;;;;;;1.42;1.30;;;17.40;64.20;;;;;;5066123;28;20210;-64
2022/09/26 10:05:28;;;;;;;2.08;1.50;;;17.50;64.20;;;;;;5050196;28;20202;-63
2022/09/26 10:07:58;;;;;;;2.97;1.15;;;17.50;64.20;;;;;;5058440;28;20237;-63
2022/09/26 10:10:41;;;;;;;2.33;1.25;;;17.50;64.20;;;;;;5072988;28;20292;-64
2022/09/26 10:13:10;;;;;;;3.17;1.63;;;17.40;64.20;;;;;;5056709;28;20186;-63
2022/09/26 10:15:42;;;;;;;2.78;1.55;;;17.40;64.20;;;;;;5068847;28;20167;-64
2022/09/26 10:18:20;;;;;;;2.30;1.25;;;17.40;64.20;;;;;;5054619;28;20253;-65
2022/09/26 10:20:57;;;;;;;2.97;1.50;;;17.40;64.50;;;;;;5059826;28;20167;-64
2022/09/26 10:23:34;;;;;;;2.22;1.38;;;17.40;64.50;;;;;;5050975;28;20182;-64
2022/09/26 10:26:02;;;;;;;2.47;1.55;;;17.40;64.50;;;;;;5050896;28;20171;-64
2022/09/26 10:28:48;;;;;;;1.98;1.60;;;17.40;64.50;;;;;;5038673;28;20490;-64
2022/09/26 10:31:37;;;;;;;1.73;1.38;;;17.40;64.60;;;;;;5053219;28;20536;-64
2022/09/26 10:34:20;;;;;;;3.85;1.60;;;17.40;64.60;;;;;;5055351;28;20257;-64
2022/09/26 10:36:46;;;;;;;2.03;1.20;;;17.40;64.70;;;;;;5052797;28;20198;-65
2022/09/26 10:42:00;;;;;;;4.40;1.50;;;17.30;64.60;;;;;;5051836;28;20206;-65
2022/09/26 10:44:35;;;;;;;2.80;1.42;;;17.30;64.70;;;;;;5052650;28;20179;-64
2022/09/26 10:47:07;;;;;;;2.20;1.23;;;17.30;64.60;;;;;;5070186;28;20181;-64
2022/09/26 10:50:02;;;;;;;3.03;1.17;;;17.30;64.70;;;;;;5072069;28;20171;-65
2022/09/26 10:52:48;;;;;;;3.65;1.60;;;17.30;64.70;;;;;;5069344;28;20273;-63
2022/09/26 10:55:26;;;;;;;2.88;1.27;;;17.30;64.80;;;;;;5055255;28;20259;-64
2022/09/26 10:57:56;;;;;;;2.03;1.02;;;17.30;64.70;;;;;;5071685;28;20258;-64
2022/09/26 11:00:22;;;;;;;4.15;1.27;;;17.30;64.80;;;;;;5074909;28;20598;-64
2022/09/26 11:02:50;;;;;;;3.08;1.63;;;17.30;64.80;;;;;;5075691;28;20166;-65
2022/09/26 11:08:04;;;;;;;2.08;1.02;;;17.30;65.50;;;;;;5060699;28;20281;-64
2022/09/26 11:10:33;;;;;;;4.28;1.38;;;17.40;64.70;;;;;;5075475;28;20230;-64
2022/09/26 11:13:17;;;;;;;1.70;1.38;;;17.30;64.70;;;;;;5074761;28;20613;-64
2022/09/26 11:15:52;;;;;;;3.33;1.25;;;17.40;64.80;;;;;;5076238;28;20641;-66
2022/09/26 11:18:44;;;;;;;4.13;1.70;;;17.30;64.80;;;;;;5071710;28;20206;-65
2022/09/26 11:21:33;;;;;;;3.88;1.50;;;17.30;64.80;;;;;;5040457;28;20274;-66
2022/09/26 11:24:18;;;;;;;2.45;1.50;;;17.40;64.80;;;;;;5072222;28;20532;-65
2022/09/26 11:26:58;;;;;;;2.60;1.30;;;17.40;64.90;;;;;;5069801;28;20629;-66
2022/09/26 11:29:41;;;;;;;3.85;1.40;;;17.50;65.10;;;;;;5055899;28;20179;-65
2022/09/26 11:32:16;;;;;;;1.73;1.20;;;17.50;65.10;;;;;;5037651;28;20190;-65
2022/09/26 11:34:42;;;;;;;2.60;1.40;;;17.60;65.20;;;;;;5055708;28;20604;-66
2022/09/26 11:37:48;;;;;;;1.52;1.13;;;17.70;65.00;;;;;;5073366;28;20182;-66
2022/09/26 11:40:45;;;;;;;2.88;1.08;;;17.80;64.90;;;;;;5075538;28;20245;-65
2022/09/26 11:43:43;;;;;;;2.05;1.00;;;18.00;64.70;;;;;;5075338;28;20543;-65
2022/09/26 11:46:33;;;;;;;2.53;1.40;;;18.10;64.10;;;;;;5074790;28;20216;-65
2022/09/26 11:49:29;;;;;;;3.75;1.40;;;18.30;63.70;;;;;;5075233;28;20677;-64
2022/09/26 11:52:16;;;;;;;2.28;1.10;;;18.40;63.40;;;;;;5072077;28;20205;-66
2022/09/26 11:54:56;;;;;;;2.10;1.10;;;18.50;63.30;;;;;;5055353;28;20179;-66
2022/09/26 11:57:41;;;;;;;2.50;1.27;;;18.70;62.90;;;;;;5053860;28;20198;-66
2022/09/26 12:00:11;;;;;;;3.15;1.13;;;18.80;62.50;;;;;;5053026;28;20222;-66
2022/09/26 12:03:12;;;;;;;1.52;1.20;;;18.90;62.30;;;;;;5055557;28;20175;-65
2022/09/26 12:06:00;;;;;;;1.70;1.10;;;19.00;61.90;;;;;;5053629;28;20225;-65
2022/09/26 12:08:46;;;;;;;3.10;1.30;;;19.00;61.90;;;;;;5055088;28;20543;-66
2022/09/26 12:11:26;;;;;;;1.27;0.90;;;18.90;62.00;;;;;;5053636;28;20280;-67
2022/09/26 12:13:58;;;;;;;3.45;1.20;;;18.90;61.90;;;;;;5054333;28;20199;-68
2022/09/26 12:16:26;;;;;;;2.40;1.10;;;18.90;62.10;;;;;;5053938;28;20176;-66
2022/09/26 12:19:27;;;;;;;2.65;1.10;;;18.90;62.10;;;;;;5054876;28;20618;-66
2022/09/26 12:25:06;;;;;;;1.77;1.15;;;18.70;62.30;;;;;;5035507;28;20168;-65
2022/09/26 12:27:48;;;;;;;2.50;1.10;;;18.70;62.50;;;;;;5064064;28;20179;-66
2022/09/26 12:30:25;;;;;;;2.47;1.20;;;18.60;62.70;;;;;;5073652;28;20265;-66
2022/09/26 12:33:12;;;;;;;2.20;1.00;;;18.60;62.80;;;;;;5058515;28;20175;-66
2022/09/26 12:35:46;;;;;;;1.70;1.35;;;18.60;62.90;;;;;;5074925;28;20182;-66
2022/09/26 12:38:21;;;;;;;2.03;1.02;;;18.50;63.10;;;;;;5074448;28;20215;-66
2022/09/26 12:40:47;;;;;;;2.03;1.15;;;18.40;63.10;;;;;;5073627;28;20196;-70
2022/09/26 12:43:36;;;;;;;0.77;0.77;;;18.40;63.30;;;;;;5074513;28;20193;-68
2022/09/26 12:46:27;;;;;;;1.95;1.00;;;18.40;63.40;;;;;;5073164;28;20177;-67
2022/09/26 12:49:03;;;;;;;2.80;1.10;;;18.30;63.50;;;;;;5072842;28;20186;-64
2022/09/26 12:51:41;;;;;;;1.92;0.90;;;18.30;63.60;;;;;;5073241;28;20198;-63
2022/09/26 12:54:39;;;;;;;2.47;1.05;;;18.30;63.70;;;;;;5059565;28;20174;-64
2022/09/26 12:57:10;;;;;;;3.60;1.08;;;18.20;64.00;;;;;;5054037;28;20250;-62
2022/09/26 12:59:40;;;;;;;3.90;1.00;;;18.20;63.90;;;;;;5053217;28;20210;-62
2022/09/26 13:02:32;;;;;;;4.88;0.98;;;18.10;63.90;;;;;;5052269;28;20175;-64
2022/09/26 13:05:14;;;;;;;2.95;1.00;;;18.00;63.80;;;;;;5052791;28;20714;-63
2022/09/26 13:07:58;;;;;;;3.10;1.23;;;18.10;63.90;;;;;;5054106;28;20532;-64
2022/09/26 13:10:26;;;;;;;2.17;1.00;;;18.10;63.90;;;;;;5052109;28;20301;-64
2022/09/26 13:13:02;;;;;;;2.70;1.27;;;18.10;63.90;;;;;;5052632;28;20178;-63
2022/09/26 13:15:46;;;;;;;2.90;1.10;;;18.20;63.90;;;;;;5052228;28;20221;-64
2022/09/26 13:18:17;;;;;;;3.90;1.25;;;18.10;63.60;;;;;;5053556;28;20594;-67
2022/09/26 13:20:44;;;;;;;4.63;1.20;;;18.20;63.30;;;;;;5065683;28;20181;-65
2022/09/26 13:23:30;;;;;;;1.38;0.93;;;18.20;63.20;;;;;;5072814;28;20279;-65
2022/09/26 13:26:16;;;;;;;1.52;0.98;;;18.20;63.20;;;;;;5073343;28;20186;-64
2022/09/26 13:29:24;;;;;;;1.88;1.23;;;18.20;63.20;;;;;;5072728;28;20175;-64
2022/09/26 13:31:57;;;;;;;1.20;0.93;;;18.30;63.40;;;;;;5061371;28;20190;-61